Neptune Beach, FL

2:36 AM EDT on September 17, 2014 (GMT -0400)
Leeward Landing @ Neptune Beach | Change Station
CLOSE
Current Station
Personal Weather Station
Location: Neptune Beach, FL
Elevation: 14 ft
Nearby Weather Stations

Elev 14 ft 30.32 °N, 81.41 °W | Updated 11 seconds ago

Mostly Cloudy
Mostly Cloudy
72.8 °F
Feels Like 72.8 °F
N
0.0
Wind Variable Wind from WSW
Gusts 0.0 mph

Today
High -- | Low -- °F
--% Chance of Precip.
Yesterday
High -- | Low -- °F
Precip. -- in
7:11 AM 7:28 PM
Last Quarter, 38% visible
Pressure 29.94 in
Visibility 10.0 miles
Clouds Scattered Clouds 700 ft
Overcast 15000 ft
Dew Point 72 °F
Humidity 97%
Rainfall 0.00 in
Snow Depth Not available.
UV 0 out of 12
Pollen 4.60 out of 12
Ozone Good
PM2.5 Good
Flu Activity Not available.
METAR KNRB 170552Z VRB03KT 10SM SCT007 OVC150 23/22 A2993 RMK AO2 SLP136 60000 T02330222 10250 20233 58007 $

More Conditions Fewer Conditions

Pressure 29.94 in
Visibility 10.0 miles
Clouds Scattered Clouds 700 ft
Overcast 15000 ft
Dew Point 72 °F
Humidity 97%
Rainfall 0.00 in
Snow Depth Not available.
UV 0 out of 12
Pollen 4.60 out of 12
Ozone Good
PM2.5 Good
Flu Activity Not available.
METAR KNRB 170552Z VRB03KT 10SM SCT007 OVC150 23/22 A2993 RMK AO2 SLP136 60000 T02330222 10250 20233 58007 $

More Conditions Fewer Conditions

10-Day Weather Forecast

Almanac

Astronomy

Sep. 17, 2014 Rise Set
Actual Time 7:11 AM EDT 7:28 PM EDT
Civil Twilight 6:47 AM EDT 7:52 PM EDT
Nautical Twilight 6:19 AM EDT 8:20 PM EDT
Astronomical Twilight 5:50 AM EDT 8:48 PM EDT
Moon 1:27 AM EDT 3:20 PM EDT
Length of Visible Light 13h 05m
Length of Day
12h 17m
Tomorrow will be 1m 49s shorter.
Last Quarter, 38% of the Moon is Illuminated
Today
Last Quarter
Sep 24
New
Oct 1
First Quarter
Oct 8
Full
Oct 15
Last Quarter

Today's Extremes

State Highs State Lows

Community

WunderPhotos

Upload Photos

1,753,970 photos uploaded!

Nearby

Air Quality

  Air Quality AQ Index Pollutant
Yesterday Good
PM2.5
Yesterday Good
OZONE
Current Good
OZONE
Current Good
PM2.5
Wednesday Good
OZONE
Wednesday Good
PM2.5

Snow Depth

Station Depth Elevation
No new snow has been reported.

Earthquake Activity

City Distance Mag. Time & Date
No recent earthquake activity has been reported nearby.
Minimum magnitude displayed is 2.5.

Coastal Water Temperatures

Place Temperature
Mayport (Bar Pilots Dock), FL 84.0 °F
Fernandina Beach, FL 84.9 °F

Nearby Weather Stations